createdAt,value
2023-01-07T00:01:52.629Z,11.62
2023-01-07T00:06:54.600Z,11.61
2023-01-07T00:11:56.493Z,11.62
2023-01-07T00:16:58.438Z,11.60
2023-01-07T00:22:00.601Z,11.58
2023-01-07T00:27:03.599Z,11.58
2023-01-07T00:32:05.560Z,11.57
2023-01-07T00:37:26.535Z,11.56
2023-01-07T00:42:47.211Z,11.54
2023-01-07T00:47:53.635Z,11.55
2023-01-07T00:52:56.074Z,11.52
2023-01-07T00:58:00.514Z,11.52
2023-01-07T01:03:02.730Z,11.52
2023-01-07T01:08:04.843Z,11.51
2023-01-07T01:13:06.753Z,11.49
2023-01-07T01:18:08.853Z,11.49
2023-01-07T01:23:12.169Z,11.49
2023-01-07T01:28:16.045Z,11.48
2023-01-07T01:33:18.060Z,11.48
2023-01-07T01:38:20.921Z,11.47
2023-01-07T01:43:40.770Z,11.47
2023-01-07T01:48:54.290Z,11.48
2023-01-07T01:53:56.985Z,11.47
2023-01-07T01:59:05.630Z,11.48
2023-01-07T02:04:12.088Z,11.48
2023-01-07T02:09:14.557Z,11.46
2023-01-07T02:14:28.839Z,11.45
2023-01-07T02:19:52.160Z,11.45
2023-01-07T02:25:23.865Z,11.42
2023-01-07T02:31:14.847Z,11.44
2023-01-07T02:36:35.426Z,11.43
2023-01-07T02:41:49.790Z,11.44
2023-01-07T02:46:59.651Z,11.43
2023-01-07T02:52:20.062Z,11.44
2023-01-07T02:57:25.071Z,11.44
2023-01-07T03:02:51.221Z,11.43
2023-01-07T03:08:02.072Z,11.44
2023-01-07T03:13:15.077Z,11.44
2023-01-07T03:18:25.964Z,11.45
2023-01-07T03:23:30.308Z,11.44
2023-01-07T03:28:37.576Z,11.44
2023-01-07T03:33:48.113Z,11.42
2023-01-07T03:38:52.595Z,11.39
2023-01-07T03:43:56.232Z,11.38
2023-01-07T03:48:58.142Z,11.37
2023-01-07T03:54:00.272Z,11.36
2023-01-07T03:59:02.851Z,11.36
2023-01-07T04:04:05.090Z,11.36
2023-01-07T04:09:07.793Z,11.36
2023-01-07T04:14:13.346Z,11.37
2023-01-07T04:19:15.248Z,11.37
2023-01-07T04:24:17.284Z,11.35
2023-01-07T04:29:21.178Z,11.33
2023-01-07T04:34:24.619Z,11.33
2023-01-07T04:39:27.096Z,11.33
2023-01-07T04:44:29.115Z,11.32
2023-01-07T04:49:31.861Z,11.34
2023-01-07T04:54:33.993Z,11.34
2023-01-07T04:59:36.083Z,11.34
2023-01-07T05:04:38.533Z,11.33
2023-01-07T05:09:41.528Z,11.33
2023-01-07T05:14:43.797Z,11.34
2023-01-07T05:19:46.564Z,11.33
2023-01-07T05:24:49.414Z,11.32
2023-01-07T05:29:52.450Z,11.32
2023-01-07T05:34:54.463Z,11.32
2023-01-07T05:39:56.902Z,11.30
2023-01-07T05:44:58.954Z,11.31
2023-01-07T05:50:00.788Z,11.31
2023-01-07T05:55:04.422Z,11.30
2023-01-07T06:00:07.068Z,11.32
2023-01-07T06:05:13.814Z,11.31
2023-01-07T06:10:15.739Z,11.30
2023-01-07T06:15:18.454Z,11.30
2023-01-07T06:20:21.748Z,11.30
2023-01-07T06:25:23.663Z,11.30
2023-01-07T06:30:27.287Z,11.28
2023-01-07T06:35:30.627Z,11.29
2023-01-07T06:40:33.055Z,11.30
2023-01-07T06:45:34.966Z,11.28
2023-01-07T06:50:36.719Z,11.29
2023-01-07T06:55:38.657Z,11.29
2023-01-07T07:00:40.473Z,11.28
2023-01-07T07:05:42.695Z,11.26
2023-01-07T07:10:44.824Z,11.25
2023-01-07T07:15:46.755Z,11.26
2023-01-07T07:20:49.054Z,11.28
2023-01-07T07:25:52.412Z,11.26
2023-01-07T07:30:55.894Z,11.27
2023-01-07T07:35:59.367Z,11.26
2023-01-07T07:41:01.390Z,11.28
2023-01-07T07:46:03.473Z,11.27
2023-01-07T07:51:05.552Z,11.28
2023-01-07T07:56:08.855Z,11.28
2023-01-07T08:01:11.970Z,11.27
2023-01-07T08:06:14.112Z,11.28
2023-01-07T08:11:16.151Z,11.26
2023-01-07T08:16:18.602Z,11.27
2023-01-07T08:21:20.435Z,11.28
2023-01-07T08:26:22.249Z,11.29
2023-01-07T08:31:24.028Z,11.30
2023-01-07T08:36:26.029Z,11.31
2023-01-07T08:41:28.011Z,11.34
2023-01-07T08:46:29.907Z,11.35
2023-01-07T08:51:32.048Z,11.37
2023-01-07T08:56:33.951Z,11.38
2023-01-07T09:01:37.273Z,11.41
2023-01-07T09:06:39.663Z,11.43
2023-01-07T09:11:41.537Z,11.45
2023-01-07T09:16:43.418Z,11.46
2023-01-07T09:21:45.400Z,11.46
2023-01-07T09:26:47.191Z,11.49
2023-01-07T09:31:49.121Z,11.51
2023-01-07T09:36:50.857Z,11.55
2023-01-07T09:42:09.761Z,11.58
2023-01-07T09:47:14.202Z,11.58
2023-01-07T09:52:22.638Z,11.64
2023-01-07T09:57:24.431Z,11.69
2023-01-07T10:02:44.205Z,11.77
2023-01-07T10:08:30.450Z,11.84
2023-01-07T10:13:33.566Z,11.95
2023-01-07T10:18:55.583Z,12.08
2023-01-07T10:24:14.421Z,12.22
2023-01-07T10:29:32.483Z,12.33
2023-01-07T10:34:44.648Z,12.43
2023-01-07T10:40:00.564Z,12.52
2023-01-07T10:45:41.097Z,12.62
2023-01-07T10:50:57.422Z,12.75
2023-01-07T10:56:05.272Z,12.86
2023-01-07T11:01:08.971Z,12.94
2023-01-07T11:06:15.385Z,12.98
2023-01-07T11:11:21.432Z,12.99
2023-01-07T11:16:28.532Z,13.00
2023-01-07T11:21:42.705Z,13.07
2023-01-07T11:26:46.786Z,13.17
2023-01-07T11:31:48.958Z,13.28
2023-01-07T11:36:52.954Z,13.37
2023-01-07T11:42:01.189Z,13.42
2023-01-07T11:47:03.511Z,13.44
2023-01-07T11:52:05.675Z,13.46
2023-01-07T11:57:21.771Z,13.46
2023-01-07T12:02:27.153Z,13.47
2023-01-07T12:07:29.120Z,13.50
2023-01-07T12:12:40.141Z,13.54
2023-01-07T12:17:46.545Z,13.60
2023-01-07T12:23:13.174Z,13.72
2023-01-07T12:28:19.046Z,13.84
2023-01-07T12:33:46.127Z,14.00
2023-01-07T12:38:51.590Z,14.08
2023-01-07T12:44:02.966Z,14.11
2023-01-07T12:49:23.211Z,14.12
2023-01-07T12:54:45.108Z,14.11
2023-01-07T12:59:59.474Z,14.16
2023-01-07T13:05:26.428Z,14.23
2023-01-07T13:10:41.032Z,14.25
2023-01-07T13:15:42.821Z,14.31
2023-01-07T13:21:07.736Z,14.38
2023-01-07T13:26:33.566Z,14.47
2023-01-07T13:31:58.774Z,14.56
2023-01-07T13:37:22.367Z,14.65
2023-01-07T13:42:45.033Z,14.73
2023-01-07T13:47:57.458Z,14.81
2023-01-07T13:53:03.631Z,14.83
2023-01-07T13:58:34.154Z,14.87
2023-01-07T14:03:53.292Z,14.91
2023-01-07T14:09:07.421Z,14.93
2023-01-07T14:14:38.392Z,14.96
2023-01-07T14:19:59.084Z,14.97
2023-01-07T14:25:30.784Z,15.01
2023-01-07T14:30:44.442Z,15.00
2023-01-07T14:35:56.717Z,15.00
2023-01-07T14:47:44.564Z,14.99
2023-01-07T14:52:57.160Z,14.97
2023-01-07T14:58:23.597Z,14.92
2023-01-07T15:03:44.568Z,14.88
2023-01-07T15:09:20.361Z,14.85
2023-01-07T15:14:49.301Z,14.80
2023-01-07T15:19:52.275Z,14.71
2023-01-07T15:25:24.974Z,14.61
2023-01-07T15:30:58.507Z,14.45
2023-01-07T15:36:04.657Z,14.29
2023-01-07T15:41:06.494Z,14.15
2023-01-07T15:46:08.829Z,14.01
2023-01-07T15:51:18.528Z,13.88
2023-01-07T15:56:22.439Z,13.75
2023-01-07T16:01:25.396Z,13.64
2023-01-07T16:06:39.467Z,13.54
2023-01-07T16:11:42.043Z,13.43
2023-01-07T16:16:44.033Z,13.33
2023-01-07T16:21:56.869Z,13.23
2023-01-07T16:27:05.263Z,13.13
2023-01-07T16:32:07.841Z,12.97
2023-01-07T16:37:16.175Z,12.87
2023-01-07T16:42:25.163Z,12.71
2023-01-07T16:47:34.547Z,12.61
2023-01-07T16:52:36.487Z,12.52
2023-01-07T16:57:42.562Z,12.47
2023-01-07T17:02:55.605Z,12.36
2023-01-07T17:08:02.010Z,12.28
2023-01-07T17:13:32.188Z,12.24
2023-01-07T17:18:47.258Z,12.20
2023-01-07T17:23:53.656Z,12.14
2023-01-07T17:29:03.281Z,12.11
2023-01-07T17:34:16.469Z,12.08
2023-01-07T17:39:28.857Z,12.04
2023-01-07T17:44:35.215Z,12.03
2023-01-07T17:49:39.628Z,11.99
2023-01-07T17:54:45.605Z,11.94
2023-01-07T17:59:51.086Z,11.91
2023-01-07T18:04:53.402Z,11.88
2023-01-07T18:09:59.906Z,11.82
2023-01-07T18:15:29.760Z,11.75
2023-01-07T18:20:41.066Z,11.66
2023-01-07T18:31:05.901Z,11.46
2023-01-07T18:36:12.593Z,11.37
2023-01-07T18:41:14.984Z,11.31
2023-01-07T18:46:17.915Z,11.26
2023-01-07T18:51:20.107Z,11.21
2023-01-07T18:56:22.721Z,11.16
2023-01-07T19:01:28.699Z,11.12
2023-01-07T19:06:30.998Z,11.10
2023-01-07T19:11:33.206Z,11.06
2023-01-07T19:16:37.717Z,11.01
2023-01-07T19:21:42.157Z,10.97
2023-01-07T19:26:44.634Z,10.95
2023-01-07T19:31:47.514Z,10.92
2023-01-07T19:36:50.649Z,10.89
2023-01-07T19:41:58.822Z,10.85
2023-01-07T19:47:01.913Z,10.78
2023-01-07T19:52:04.139Z,10.73
2023-01-07T19:57:06.303Z,10.67
2023-01-07T20:02:08.856Z,10.59
2023-01-07T20:07:12.142Z,10.51
2023-01-07T20:12:14.021Z,10.41
2023-01-07T20:17:16.271Z,10.32
2023-01-07T20:22:18.467Z,10.27
2023-01-07T20:27:20.643Z,10.23
2023-01-07T20:32:22.598Z,10.20
2023-01-07T20:37:28.365Z,10.18
2023-01-07T20:42:32.177Z,10.14
2023-01-07T20:47:34.683Z,10.11
2023-01-07T20:52:36.743Z,10.06
2023-01-07T20:57:38.888Z,10.03
2023-01-07T21:02:42.121Z,10.02
2023-01-07T21:07:44.306Z,9.98
2023-01-07T21:12:47.488Z,9.98
2023-01-07T21:17:49.594Z,9.95
2023-01-07T21:22:52.579Z,9.93
2023-01-07T21:27:55.399Z,9.91
2023-01-07T21:32:58.885Z,9.90
2023-01-07T21:38:02.756Z,9.86
2023-01-07T21:43:05.151Z,9.83
2023-01-07T21:48:07.078Z,9.80
2023-01-07T21:53:09.401Z,9.74
2023-01-07T21:58:11.272Z,9.69
2023-01-07T22:03:14.139Z,9.64
2023-01-07T22:08:16.687Z,9.58
2023-01-07T22:13:19.163Z,9.51
2023-01-07T22:18:21.954Z,9.46
2023-01-07T22:23:24.702Z,9.44
2023-01-07T22:28:27.852Z,9.39
2023-01-07T22:33:30.098Z,9.37
2023-01-07T22:38:33.786Z,9.37
2023-01-07T22:43:36.675Z,9.37
2023-01-07T22:48:40.246Z,9.37
2023-01-07T22:53:42.433Z,9.36
2023-01-07T22:58:44.765Z,9.32
2023-01-07T23:03:47.036Z,9.29
2023-01-07T23:08:49.156Z,9.26
2023-01-07T23:13:51.048Z,9.21
2023-01-07T23:18:53.721Z,9.16
2023-01-07T23:23:56.096Z,9.11
2023-01-07T23:28:58.419Z,9.08
2023-01-07T23:34:02.318Z,9.03
2023-01-07T23:39:05.524Z,9.00
2023-01-07T23:44:07.802Z,8.94
2023-01-07T23:49:09.644Z,8.89
2023-01-07T23:54:13.234Z,8.86
2023-01-07T23:59:15.308Z,8.82
